createdAt,value
2022-11-19T00:01:51.641Z,12.13
2022-11-19T00:04:18.477Z,15.48
2022-11-19T00:06:45.270Z,10.85
2022-11-19T00:09:14.454Z,12.40
2022-11-19T00:11:59.742Z,12.00
2022-11-19T00:14:26.488Z,12.93
2022-11-19T00:16:53.216Z,13.10
2022-11-19T00:19:20.409Z,10.98
2022-11-19T00:21:48.738Z,11.23
2022-11-19T00:24:15.582Z,11.30
2022-11-19T00:26:42.410Z,10.32
2022-11-19T00:29:09.097Z,12.23
2022-11-19T00:31:35.783Z,9.23
2022-11-19T00:34:02.585Z,12.98
2022-11-19T00:36:29.390Z,11.73
2022-11-19T00:38:56.182Z,13.95
2022-11-19T00:41:22.864Z,10.43
2022-11-19T00:43:50.392Z,12.20
2022-11-19T00:46:17.094Z,10.80
2022-11-19T00:48:43.809Z,10.25
2022-11-19T00:51:10.526Z,8.75
2022-11-19T00:53:37.180Z,11.80
2022-11-19T00:56:03.921Z,13.20
2022-11-19T00:58:30.586Z,13.80
2022-11-19T01:00:57.290Z,9.10
2022-11-19T01:03:24.195Z,9.98
2022-11-19T01:05:50.959Z,8.35
2022-11-19T01:08:17.582Z,9.95
2022-11-19T01:10:44.368Z,14.27
2022-11-19T01:13:29.725Z,8.77
2022-11-19T01:15:56.428Z,11.50
2022-11-19T01:18:23.112Z,9.98
2022-11-19T01:20:49.814Z,11.90
2022-11-19T01:23:16.613Z,10.15
2022-11-19T01:25:43.405Z,11.05
2022-11-19T01:28:10.155Z,9.95
2022-11-19T01:30:36.822Z,10.82
2022-11-19T01:33:03.537Z,10.00
2022-11-19T01:35:30.251Z,8.23
2022-11-19T01:37:56.969Z,9.75
2022-11-19T01:40:23.789Z,10.55
2022-11-19T01:42:50.581Z,12.68
2022-11-19T01:45:17.406Z,9.82
2022-11-19T01:47:44.107Z,11.80
2022-11-19T01:50:10.791Z,12.20
2022-11-19T01:52:37.471Z,11.02
2022-11-19T01:55:04.204Z,9.32
2022-11-19T01:57:30.861Z,10.15
2022-11-19T01:59:57.570Z,11.45
2022-11-19T02:02:24.233Z,10.27
2022-11-19T02:04:54.000Z,10.88
2022-11-19T02:07:23.034Z,10.35
2022-11-19T02:09:49.747Z,12.50
2022-11-19T02:12:16.477Z,8.18
2022-11-19T02:14:43.154Z,11.18
2022-11-19T02:17:10.119Z,13.75
2022-11-19T02:19:36.859Z,7.97
2022-11-19T02:22:03.512Z,13.35
2022-11-19T02:24:30.215Z,8.98
2022-11-19T02:26:57.067Z,11.82
2022-11-19T02:29:23.754Z,9.93
2022-11-19T02:31:50.439Z,5.88
2022-11-19T02:34:17.116Z,11.95
2022-11-19T02:36:43.810Z,11.02
2022-11-19T02:39:10.551Z,11.65
2022-11-19T02:41:37.246Z,7.70
2022-11-19T02:44:22.555Z,8.63
2022-11-19T02:46:49.295Z,8.90
2022-11-19T02:49:16.104Z,11.60
2022-11-19T02:51:43.003Z,9.57
2022-11-19T02:54:09.703Z,10.57
2022-11-19T02:56:36.434Z,14.38
2022-11-19T02:59:21.831Z,12.70
2022-11-19T03:02:07.355Z,13.52
2022-11-19T03:04:34.033Z,14.05
2022-11-19T03:07:00.775Z,8.40
2022-11-19T03:09:27.602Z,8.82
2022-11-19T03:11:54.305Z,8.95
2022-11-19T03:14:39.584Z,12.65
2022-11-19T03:17:06.292Z,11.35
2022-11-19T03:19:32.966Z,8.68
2022-11-19T03:21:59.702Z,11.80
2022-11-19T03:24:26.399Z,12.73
2022-11-19T03:26:53.144Z,10.10
2022-11-19T03:29:19.994Z,14.50
2022-11-19T03:31:47.569Z,12.32
2022-11-19T03:34:14.275Z,13.05
2022-11-19T03:36:40.954Z,9.00
2022-11-19T03:39:07.641Z,11.43
2022-11-19T03:41:34.444Z,5.78
2022-11-19T03:44:01.107Z,8.95
2022-11-19T03:46:27.860Z,9.90
2022-11-19T03:48:54.526Z,11.15
2022-11-19T03:51:21.233Z,9.32
2022-11-19T03:53:47.896Z,11.85
2022-11-19T03:56:14.766Z,9.15
2022-11-19T03:58:41.425Z,13.95
2022-11-19T04:01:08.180Z,9.60
2022-11-19T04:03:34.865Z,9.18
2022-11-19T04:06:01.617Z,8.55
2022-11-19T04:08:28.316Z,10.93
2022-11-19T04:10:55.099Z,11.32
2022-11-19T04:13:21.789Z,11.20
2022-11-19T04:15:48.460Z,9.18
2022-11-19T04:18:15.148Z,10.48
2022-11-19T04:20:41.859Z,9.65
2022-11-19T04:23:08.535Z,11.43
2022-11-19T04:25:35.239Z,10.27
2022-11-19T04:28:01.891Z,8.43
2022-11-19T04:30:30.106Z,12.35
2022-11-19T04:32:56.807Z,8.38
2022-11-19T04:35:23.533Z,12.45
2022-11-19T04:37:50.273Z,9.27
2022-11-19T04:40:16.962Z,10.10
2022-11-19T04:42:43.643Z,10.63
2022-11-19T04:45:10.434Z,15.82
2022-11-19T04:47:37.897Z,11.05
2022-11-19T04:50:04.585Z,13.20
2022-11-19T04:52:33.233Z,15.10
2022-11-19T04:55:03.059Z,10.57
2022-11-19T04:57:29.848Z,10.45
2022-11-19T04:59:56.538Z,10.23
2022-11-19T05:02:24.076Z,9.05
2022-11-19T05:04:50.892Z,11.13
2022-11-19T05:07:17.669Z,10.55
2022-11-19T05:09:44.651Z,10.60
2022-11-19T05:12:11.478Z,7.68
2022-11-19T05:14:38.734Z,11.05
2022-11-19T05:17:05.394Z,11.75
2022-11-19T05:19:32.080Z,8.90
2022-11-19T05:21:58.767Z,7.47
2022-11-19T05:24:25.451Z,10.18
2022-11-19T05:26:52.167Z,9.05
2022-11-19T05:29:19.134Z,6.63
2022-11-19T05:31:46.071Z,11.98
2022-11-19T05:34:12.768Z,10.40
2022-11-19T05:36:39.488Z,8.68
2022-11-19T05:39:06.179Z,10.48
2022-11-19T05:41:33.341Z,9.43
2022-11-19T05:44:00.136Z,8.60
2022-11-19T05:46:26.887Z,10.52
2022-11-19T05:48:53.578Z,6.93
2022-11-19T05:51:20.457Z,14.35
2022-11-19T05:53:47.197Z,12.95
2022-11-19T05:56:13.959Z,12.35
2022-11-19T05:58:40.631Z,12.20
2022-11-19T06:01:07.365Z,12.25
2022-11-19T06:03:33.987Z,7.90
2022-11-19T06:06:00.739Z,11.00
2022-11-19T06:08:27.382Z,11.00
2022-11-19T06:10:54.025Z,11.57
2022-11-19T06:13:20.729Z,12.85
2022-11-19T06:15:47.409Z,10.00
2022-11-19T06:18:14.115Z,10.55
2022-11-19T06:20:40.825Z,9.48
2022-11-19T06:23:08.127Z,7.53
2022-11-19T06:25:35.102Z,7.53
2022-11-19T06:28:01.769Z,10.60
2022-11-19T06:30:28.520Z,10.63
2022-11-19T06:32:55.245Z,10.52
2022-11-19T06:35:21.951Z,9.75
2022-11-19T06:37:48.656Z,9.82
2022-11-19T06:40:15.416Z,9.30
2022-11-19T06:42:42.115Z,9.00
2022-11-19T06:45:09.506Z,8.02
2022-11-19T06:47:36.172Z,11.90
2022-11-19T06:50:02.845Z,8.00
2022-11-19T06:52:29.558Z,7.55
2022-11-19T06:54:56.340Z,7.10
2022-11-19T06:57:23.052Z,8.43
2022-11-19T06:59:49.881Z,14.07
2022-11-19T07:02:21.154Z,7.22
2022-11-19T07:04:48.215Z,10.73
2022-11-19T07:07:14.921Z,11.80
2022-11-19T07:09:41.670Z,14.35
2022-11-19T07:12:08.404Z,9.80
2022-11-19T07:14:35.831Z,13.93
2022-11-19T07:17:02.533Z,10.68
2022-11-19T07:19:29.262Z,8.38
2022-11-19T07:21:55.937Z,6.68
2022-11-19T07:24:22.714Z,7.43
2022-11-19T07:26:49.397Z,10.70
2022-11-19T07:29:16.142Z,11.63
2022-11-19T07:31:42.878Z,7.50
2022-11-19T07:34:09.559Z,7.13
2022-11-19T07:36:36.366Z,9.90
2022-11-19T07:39:03.410Z,7.47
2022-11-19T07:41:48.902Z,9.45
2022-11-19T07:44:15.638Z,11.90
2022-11-19T07:46:42.416Z,10.73
2022-11-19T07:49:09.119Z,10.07
2022-11-19T07:51:35.787Z,9.65
2022-11-19T07:54:02.448Z,11.98
2022-11-19T07:56:29.186Z,9.50
2022-11-19T07:58:55.893Z,9.73
2022-11-19T08:01:22.800Z,9.93
2022-11-19T08:03:53.400Z,9.07
2022-11-19T08:06:22.629Z,11.30
2022-11-19T08:08:49.638Z,8.07
2022-11-19T08:11:16.340Z,9.23
2022-11-19T08:13:43.099Z,8.48
2022-11-19T08:16:09.795Z,7.72
2022-11-19T08:18:36.544Z,7.25
2022-11-19T08:21:03.265Z,12.88
2022-11-19T08:23:29.971Z,8.27
2022-11-19T08:25:56.728Z,12.15
2022-11-19T08:28:23.477Z,11.48
2022-11-19T08:30:50.215Z,8.68
2022-11-19T08:33:16.953Z,11.52
2022-11-19T08:35:43.607Z,7.82
2022-11-19T08:38:10.373Z,8.45
2022-11-19T08:40:37.141Z,9.15
2022-11-19T08:43:03.815Z,11.48
2022-11-19T08:45:30.825Z,10.18
2022-11-19T08:47:57.590Z,9.60
2022-11-19T08:50:24.583Z,11.90
2022-11-19T08:52:51.319Z,11.68
2022-11-19T08:55:18.158Z,8.13
2022-11-19T08:57:44.933Z,11.43
2022-11-19T09:00:11.672Z,10.05
2022-11-19T09:02:38.356Z,13.57
2022-11-19T09:05:05.041Z,9.73
2022-11-19T09:07:31.804Z,11.07
2022-11-19T09:09:58.596Z,11.82
2022-11-19T09:12:25.374Z,10.65
2022-11-19T09:14:52.103Z,9.77
2022-11-19T09:17:18.801Z,9.25
2022-11-19T09:19:45.571Z,7.82
2022-11-19T09:22:12.288Z,13.57
2022-11-19T09:24:39.035Z,9.45
2022-11-19T09:27:05.780Z,9.25
2022-11-19T09:29:32.679Z,12.45
2022-11-19T09:31:59.386Z,11.40
2022-11-19T09:34:26.159Z,10.38
2022-11-19T09:36:52.877Z,11.45
2022-11-19T09:39:19.554Z,12.10
2022-11-19T09:41:46.311Z,13.38
2022-11-19T09:44:13.468Z,9.50
2022-11-19T09:46:40.187Z,9.13
2022-11-19T09:49:06.917Z,12.27
2022-11-19T09:51:33.614Z,13.52
2022-11-19T09:54:00.289Z,11.73
2022-11-19T09:56:27.125Z,11.40
2022-11-19T09:58:53.807Z,11.65
2022-11-19T10:01:20.981Z,11.10
2022-11-19T10:03:47.711Z,10.85
2022-11-19T10:06:14.435Z,10.82
2022-11-19T10:08:41.219Z,8.80
2022-11-19T10:11:07.908Z,9.70
2022-11-19T10:13:34.551Z,8.27
2022-11-19T10:16:01.255Z,12.75
2022-11-19T10:18:27.985Z,9.02
2022-11-19T10:20:54.983Z,9.85
2022-11-19T10:23:21.772Z,8.35
2022-11-19T10:25:48.514Z,13.07
2022-11-19T10:28:15.268Z,8.68
2022-11-19T10:30:41.971Z,11.25
2022-11-19T10:33:08.681Z,12.98
2022-11-19T10:35:35.650Z,10.02
2022-11-19T10:38:02.421Z,10.52
2022-11-19T10:40:29.087Z,10.15
2022-11-19T10:42:55.783Z,7.72
2022-11-19T10:45:22.578Z,11.10
2022-11-19T10:47:49.251Z,9.07
2022-11-19T10:50:15.942Z,10.65
2022-11-19T10:52:42.613Z,7.72
2022-11-19T10:55:09.303Z,11.00
2022-11-19T10:57:36.021Z,11.35
2022-11-19T11:00:02.759Z,14.60
2022-11-19T11:02:29.548Z,9.48
2022-11-19T11:04:56.382Z,14.57
2022-11-19T11:07:23.289Z,12.98
2022-11-19T11:09:50.047Z,11.73
2022-11-19T11:12:35.579Z,10.35
2022-11-19T11:15:02.339Z,8.93
2022-11-19T11:17:29.048Z,10.43
2022-11-19T11:19:55.766Z,10.90
2022-11-19T11:22:22.563Z,8.52
2022-11-19T11:24:49.287Z,8.20
2022-11-19T11:27:15.960Z,9.13
2022-11-19T11:29:42.687Z,12.88
2022-11-19T11:32:09.384Z,12.85
2022-11-19T11:34:36.049Z,13.60
2022-11-19T11:37:02.807Z,7.55
2022-11-19T11:39:29.514Z,15.98
2022-11-19T11:42:15.938Z,7.05
2022-11-19T11:44:42.941Z,6.13
2022-11-19T11:47:09.621Z,11.65
2022-11-19T11:49:36.407Z,9.90
2022-11-19T11:52:03.142Z,10.13
2022-11-19T11:54:29.907Z,12.25
2022-11-19T11:56:56.622Z,6.35
2022-11-19T11:59:23.256Z,8.48
2022-11-19T12:01:49.917Z,9.68
2022-11-19T12:04:16.740Z,9.50
2022-11-19T12:06:43.503Z,12.35
2022-11-19T12:09:10.174Z,8.57
2022-11-19T12:11:55.175Z,10.02
2022-11-19T12:14:21.931Z,10.57
2022-11-19T12:16:49.032Z,9.30
2022-11-19T12:19:15.788Z,6.25
2022-11-19T12:21:42.518Z,5.75
2022-11-19T12:24:09.186Z,8.60
2022-11-19T12:26:35.848Z,8.30
2022-11-19T12:29:02.541Z,10.05
2022-11-19T12:31:30.224Z,6.82
2022-11-19T12:33:56.997Z,8.02
2022-11-19T12:36:23.664Z,8.05
2022-11-19T12:38:50.555Z,10.23
2022-11-19T12:41:17.225Z,6.28
2022-11-19T12:43:43.921Z,8.77
2022-11-19T12:46:10.644Z,8.02
2022-11-19T12:48:38.375Z,7.18
2022-11-19T12:51:05.166Z,14.75
2022-11-19T12:53:31.852Z,6.78
2022-11-19T12:55:58.529Z,10.00
2022-11-19T12:58:25.760Z,9.95
2022-11-19T13:00:52.496Z,8.80
2022-11-19T13:03:21.169Z,8.43
2022-11-19T13:05:47.895Z,6.47
2022-11-19T13:08:14.672Z,6.47
2022-11-19T13:10:41.362Z,10.85
2022-11-19T13:13:08.098Z,5.60
2022-11-19T13:15:34.838Z,6.78
2022-11-19T13:18:01.563Z,7.32
2022-11-19T13:20:28.708Z,8.35
2022-11-19T13:22:55.497Z,7.78
2022-11-19T13:25:22.205Z,7.93
2022-11-19T13:27:48.957Z,6.32
2022-11-19T13:30:15.668Z,8.05
2022-11-19T13:32:42.372Z,7.95
2022-11-19T13:35:09.088Z,6.47
2022-11-19T13:37:35.913Z,7.05
2022-11-19T13:40:02.564Z,9.18
2022-11-19T13:42:58.953Z,5.43
2022-11-19T13:45:34.959Z,5.13
2022-11-19T13:48:01.658Z,9.07
2022-11-19T13:50:28.363Z,7.88
2022-11-19T13:52:55.104Z,5.60
2022-11-19T13:55:21.924Z,6.90
2022-11-19T13:57:48.644Z,5.60
2022-11-19T14:00:15.306Z,5.25
2022-11-19T14:02:42.095Z,8.85
2022-11-19T14:05:08.778Z,8.73
2022-11-19T14:07:35.674Z,10.75
2022-11-19T14:10:04.450Z,7.03
2022-11-19T14:12:31.594Z,6.65
2022-11-19T14:15:16.866Z,4.85
2022-11-19T14:18:02.332Z,6.80
2022-11-19T14:20:47.843Z,10.13
2022-11-19T14:23:37.697Z,8.02
2022-11-19T14:26:33.641Z,6.43
2022-11-19T14:29:00.346Z,7.05
2022-11-19T14:31:27.057Z,5.63
2022-11-19T14:33:53.764Z,5.22
2022-11-19T14:36:20.433Z,6.03
2022-11-19T14:38:47.127Z,6.60
2022-11-19T14:41:13.849Z,8.93
2022-11-19T14:44:06.903Z,6.50
2022-11-19T14:46:33.658Z,5.78
2022-11-19T14:49:00.632Z,5.22
2022-11-19T14:51:27.352Z,9.05
2022-11-19T14:53:54.054Z,8.07
2022-11-19T14:56:20.727Z,13.50
2022-11-19T14:58:47.400Z,7.00
2022-11-19T15:01:18.117Z,9.65
2022-11-19T15:03:47.474Z,6.53
2022-11-19T15:06:14.279Z,6.63
2022-11-19T15:08:40.943Z,8.15
2022-11-19T15:11:07.673Z,6.82
2022-11-19T15:13:34.439Z,7.57
2022-11-19T15:16:01.124Z,4.70
2022-11-19T15:18:27.840Z,8.23
2022-11-19T15:20:54.569Z,10.55
2022-11-19T15:23:21.268Z,8.65
2022-11-19T15:25:47.914Z,9.27
2022-11-19T15:28:14.687Z,5.60
2022-11-19T15:30:41.362Z,9.30
2022-11-19T15:33:08.036Z,5.82
2022-11-19T15:35:34.759Z,8.07
2022-11-19T15:38:01.452Z,7.15
2022-11-19T15:40:31.167Z,5.88
2022-11-19T15:42:57.886Z,7.13
2022-11-19T15:45:24.768Z,5.82
2022-11-19T15:47:52.232Z,15.85
2022-11-19T15:50:18.934Z,103.97
2022-11-19T15:52:45.656Z,52.92
2022-11-19T15:55:12.491Z,23.70
2022-11-19T15:57:39.177Z,10.93
2022-11-19T16:00:05.838Z,9.20
2022-11-19T16:02:34.616Z,9.25
2022-11-19T16:05:01.338Z,9.23
2022-11-19T16:07:28.053Z,9.05
2022-11-19T16:09:54.817Z,9.32
2022-11-19T16:12:40.182Z,13.27
2022-11-19T16:15:25.385Z,12.18
2022-11-19T16:17:52.056Z,8.13
2022-11-19T16:20:24.772Z,9.95
2022-11-19T16:22:52.002Z,10.10
2022-11-19T16:25:18.736Z,10.43
2022-11-19T16:27:45.473Z,8.88
2022-11-19T16:30:12.151Z,9.50
2022-11-19T16:32:38.815Z,12.05
2022-11-19T16:35:05.583Z,10.05
2022-11-19T16:37:33.073Z,11.23
2022-11-19T16:39:59.843Z,10.93
2022-11-19T16:42:28.474Z,8.88
2022-11-19T16:44:55.159Z,11.20
2022-11-19T16:47:21.861Z,12.90
2022-11-19T16:49:48.832Z,11.18
2022-11-19T16:52:15.516Z,9.68
2022-11-19T16:54:42.229Z,8.73
2022-11-19T16:57:08.916Z,11.65
2022-11-19T16:59:35.613Z,10.35
2022-11-19T17:02:02.491Z,13.30
2022-11-19T17:04:29.230Z,13.75
2022-11-19T17:06:56.136Z,20.13
2022-11-19T17:09:22.878Z,13.82
2022-11-19T17:12:08.268Z,11.60
2022-11-19T17:14:35.056Z,15.35
2022-11-19T17:17:01.717Z,10.35
2022-11-19T17:19:28.452Z,12.15
2022-11-19T17:21:55.119Z,15.60
2022-11-19T17:24:27.574Z,13.63
2022-11-19T17:26:54.835Z,13.18
2022-11-19T17:29:23.316Z,11.57
2022-11-19T17:31:50.032Z,12.77
2022-11-19T17:34:16.733Z,11.50
2022-11-19T17:36:43.831Z,10.63
2022-11-19T17:39:10.527Z,10.32
2022-11-19T17:41:55.880Z,11.20
2022-11-19T17:44:40.780Z,11.68
2022-11-19T17:47:20.822Z,9.88
2022-11-19T17:49:48.872Z,12.35
2022-11-19T17:52:15.554Z,15.43
2022-11-19T17:54:46.332Z,15.18
2022-11-19T17:57:13.184Z,12.82
2022-11-19T17:59:39.959Z,15.70
2022-11-19T18:02:06.681Z,15.57
2022-11-19T18:04:33.383Z,12.48
2022-11-19T18:07:00.120Z,14.30
2022-11-19T18:09:28.893Z,18.90
2022-11-19T18:11:58.953Z,14.68
2022-11-19T18:14:25.747Z,14.95
2022-11-19T18:16:52.407Z,16.85
2022-11-19T18:19:19.517Z,12.80
2022-11-19T18:21:46.779Z,17.38
2022-11-19T18:24:13.531Z,14.68
2022-11-19T18:26:40.335Z,17.10
2022-11-19T18:29:06.984Z,15.43
2022-11-19T18:31:33.679Z,14.82
2022-11-19T18:34:00.418Z,15.48
2022-11-19T18:36:27.138Z,16.08
2022-11-19T18:38:55.589Z,15.10
2022-11-19T18:41:22.353Z,16.55
2022-11-19T18:44:07.830Z,16.52
2022-11-19T18:46:34.563Z,20.05
2022-11-19T18:49:01.228Z,15.85
2022-11-19T18:51:27.940Z,14.82
2022-11-19T18:53:54.676Z,16.75
2022-11-19T18:56:21.369Z,16.92
2022-11-19T18:58:48.064Z,12.43
2022-11-19T19:01:16.512Z,19.52
2022-11-19T19:03:43.239Z,19.90
2022-11-19T19:06:09.943Z,18.35
2022-11-19T19:08:36.793Z,29.75
2022-11-19T19:11:22.037Z,21.92
2022-11-19T19:13:48.743Z,19.52
2022-11-19T19:16:15.454Z,20.42
2022-11-19T19:18:42.121Z,18.65
2022-11-19T19:21:08.881Z,15.52
2022-11-19T19:23:35.625Z,14.70
2022-11-19T19:26:02.330Z,16.48
2022-11-19T19:28:29.029Z,19.90
2022-11-19T19:30:55.700Z,21.58
2022-11-19T19:33:22.666Z,24.92
2022-11-19T19:35:49.403Z,20.33
2022-11-19T19:38:16.259Z,17.50
2022-11-19T19:40:42.935Z,15.52
2022-11-19T19:43:09.625Z,16.55
2022-11-19T19:45:36.285Z,18.13
2022-11-19T19:48:02.981Z,18.77
2022-11-19T19:50:29.665Z,17.08
2022-11-19T19:52:57.180Z,17.75
2022-11-19T19:55:23.867Z,18.35
2022-11-19T19:57:50.579Z,15.50
2022-11-19T20:00:17.357Z,17.92
2022-11-19T20:02:44.918Z,17.45
2022-11-19T20:05:11.625Z,18.88
2022-11-19T20:07:38.383Z,19.48
2022-11-19T20:10:05.091Z,19.15
2022-11-19T20:12:51.738Z,18.90
2022-11-19T20:15:18.553Z,17.92
2022-11-19T20:17:45.253Z,20.02
2022-11-19T20:20:11.916Z,20.00
2022-11-19T20:22:38.723Z,18.20
2022-11-19T20:25:05.511Z,19.17
2022-11-19T20:27:32.268Z,17.15
2022-11-19T20:30:00.174Z,17.45
2022-11-19T20:32:27.043Z,21.08
2022-11-19T20:34:53.750Z,17.70
2022-11-19T20:37:20.447Z,20.27
2022-11-19T20:39:47.127Z,23.02
2022-11-19T20:42:32.468Z,19.88
2022-11-19T20:44:59.706Z,16.73
2022-11-19T20:47:26.395Z,19.67
2022-11-19T20:49:53.126Z,21.95
2022-11-19T20:52:21.676Z,18.42
2022-11-19T20:54:49.689Z,20.48
2022-11-19T20:57:18.145Z,18.98
2022-11-19T20:59:44.817Z,15.27
2022-11-19T21:02:11.586Z,15.23
2022-11-19T21:04:38.555Z,21.45
2022-11-19T21:07:05.373Z,23.00
2022-11-19T21:09:32.168Z,20.08
2022-11-19T21:11:58.875Z,21.55
2022-11-19T21:14:25.644Z,19.88
2022-11-19T21:16:52.836Z,16.67
2022-11-19T21:19:20.031Z,15.57
2022-11-19T21:21:46.989Z,22.70
2022-11-19T21:24:13.681Z,20.95
2022-11-19T21:26:40.432Z,17.60
2022-11-19T21:29:07.189Z,17.65
2022-11-19T21:31:45.592Z,18.88
2022-11-19T21:34:12.394Z,16.67
2022-11-19T21:36:39.054Z,20.33
2022-11-19T21:39:05.802Z,19.38
2022-11-19T21:41:32.597Z,19.65
2022-11-19T21:43:59.307Z,17.33
2022-11-19T21:46:26.071Z,21.83
2022-11-19T21:48:52.800Z,21.60
2022-11-19T21:51:24.364Z,23.48
2022-11-19T21:53:51.819Z,20.27
2022-11-19T21:56:18.539Z,23.05
2022-11-19T21:58:45.291Z,18.15
2022-11-19T22:01:12.032Z,20.50
2022-11-19T22:03:38.736Z,19.38
2022-11-19T22:06:05.528Z,20.48
2022-11-19T22:08:32.315Z,21.95
2022-11-19T22:10:58.971Z,20.52
2022-11-19T22:13:25.780Z,26.05
2022-11-19T22:15:52.465Z,22.35
2022-11-19T22:18:19.226Z,21.42
2022-11-19T22:20:45.979Z,20.30
2022-11-19T22:23:12.680Z,19.48
2022-11-19T22:25:39.414Z,16.73
2022-11-19T22:28:06.111Z,20.13
2022-11-19T22:30:32.775Z,14.70
2022-11-19T22:32:59.588Z,17.92
2022-11-19T22:35:26.408Z,15.93
2022-11-19T22:37:53.371Z,16.52
2022-11-19T22:40:20.064Z,16.08
2022-11-19T22:42:46.821Z,15.63
2022-11-19T22:45:13.519Z,16.85
2022-11-19T22:47:40.223Z,19.00
2022-11-19T22:50:06.874Z,17.83
2022-11-19T22:52:33.672Z,15.63
2022-11-19T22:55:00.324Z,18.80
2022-11-19T22:57:27.974Z,18.42
2022-11-19T22:59:54.685Z,18.85
2022-11-19T23:02:21.386Z,15.73
2022-11-19T23:04:48.107Z,16.65
2022-11-19T23:07:14.940Z,14.70
2022-11-19T23:09:41.657Z,21.58
2022-11-19T23:12:27.226Z,18.50
2022-11-19T23:14:53.991Z,15.27
2022-11-19T23:17:20.685Z,16.52
2022-11-19T23:19:47.504Z,21.35
2022-11-19T23:22:14.187Z,15.38
2022-11-19T23:24:41.137Z,18.83
2022-11-19T23:27:07.885Z,15.32
2022-11-19T23:29:34.590Z,18.73
2022-11-19T23:32:01.244Z,14.10
2022-11-19T23:34:27.952Z,18.08
2022-11-19T23:36:54.654Z,19.00
2022-11-19T23:39:21.658Z,19.02
2022-11-19T23:41:48.442Z,18.52
2022-11-19T23:44:15.306Z,15.85
2022-11-19T23:46:42.059Z,18.20
2022-11-19T23:49:08.860Z,20.58
2022-11-19T23:51:35.566Z,16.88
2022-11-19T23:54:02.380Z,17.83
2022-11-19T23:56:29.037Z,19.73
2022-11-19T23:58:55.902Z,16.55
